createdAt,value
2019-02-25T00:02:50.736Z,22.00
2019-02-25T00:07:46.736Z,21.50
2019-02-25T00:12:42.711Z,21.23
2019-02-25T00:17:39.030Z,20.87
2019-02-25T00:22:34.938Z,19.33
2019-02-25T00:27:30.857Z,18.47
2019-02-25T00:32:26.754Z,19.47
2019-02-25T00:37:22.655Z,21.37
2019-02-25T00:42:18.555Z,16.90
2019-02-25T00:47:14.482Z,16.93
2019-02-25T00:52:10.374Z,21.37
2019-02-25T00:57:06.270Z,19.90
2019-02-25T01:02:02.172Z,20.90
2019-02-25T01:06:58.166Z,19.40
2019-02-25T01:11:54.067Z,21.10
2019-02-25T01:16:50.010Z,22.60
2019-02-25T01:21:45.904Z,16.30
2019-02-25T01:26:41.801Z,19.60
2019-02-25T01:31:37.711Z,16.43
2019-02-25T01:36:33.607Z,14.10
2019-02-25T01:41:29.604Z,18.83
2019-02-25T01:46:25.497Z,15.17
2019-02-25T01:51:22.238Z,23.67
2019-02-25T01:56:18.281Z,16.43
2019-02-25T02:01:14.183Z,15.97
2019-02-25T02:06:10.087Z,16.90
2019-02-25T02:11:05.996Z,20.53
2019-02-25T02:16:01.994Z,13.50
2019-02-25T02:20:58.332Z,13.67
2019-02-25T02:25:54.221Z,20.73
2019-02-25T02:30:50.163Z,15.47
2019-02-25T02:35:46.074Z,16.50
2019-02-25T02:40:41.963Z,21.10
2019-02-25T02:45:48.327Z,13.37
2019-02-25T02:50:44.209Z,12.90
2019-02-25T02:55:40.216Z,13.73
2019-02-25T03:00:36.218Z,16.03
2019-02-25T03:05:32.101Z,15.80
2019-02-25T03:10:27.989Z,15.53
2019-02-25T03:15:29.325Z,16.13
2019-02-25T03:20:25.376Z,17.67
2019-02-25T03:25:21.377Z,14.87
2019-02-25T03:30:19.007Z,15.27
2019-02-25T03:35:15.134Z,16.50
2019-02-25T03:40:13.065Z,14.70
2019-02-25T03:45:16.782Z,12.60
2019-02-25T03:50:13.511Z,14.10
2019-02-25T03:55:12.521Z,15.70
2019-02-25T04:00:14.383Z,18.13
2019-02-25T04:05:10.299Z,17.13
2019-02-25T04:10:08.708Z,22.23
2019-02-25T04:15:19.018Z,13.87
2019-02-25T04:20:15.802Z,13.23
2019-02-25T04:25:11.889Z,15.37
2019-02-25T04:30:10.834Z,14.07
2019-02-25T04:35:08.411Z,15.17
2019-02-25T04:40:09.379Z,12.33
2019-02-25T04:45:11.115Z,10.13
2019-02-25T04:50:08.719Z,13.67
2019-02-25T04:55:06.617Z,15.73
2019-02-25T05:00:05.935Z,14.23
2019-02-25T05:05:02.044Z,12.57
2019-02-25T05:09:57.991Z,12.60
2019-02-25T05:20:12.289Z,14.10
2019-02-25T05:25:09.911Z,11.43
2019-02-25T05:30:13.305Z,13.43
2019-02-25T05:35:10.530Z,12.90
2019-02-25T05:40:19.319Z,13.67
2019-02-25T05:45:16.573Z,13.97
2019-02-25T05:50:14.183Z,15.13
2019-02-25T05:55:14.219Z,16.77
2019-02-25T06:00:16.742Z,21.90
2019-02-25T06:05:12.747Z,16.07
2019-02-25T06:10:10.233Z,17.70
2019-02-25T06:15:13.747Z,13.87
2019-02-25T06:20:14.735Z,15.37
2019-02-25T06:25:14.312Z,20.23
2019-02-25T06:30:20.241Z,14.20
2019-02-25T06:35:16.136Z,19.07
2019-02-25T06:40:17.432Z,22.87
2019-02-25T06:45:28.590Z,19.10
2019-02-25T06:50:24.462Z,41.77
2019-02-25T06:55:20.383Z,18.37
2019-02-25T07:00:20.598Z,24.30
2019-02-25T07:10:39.732Z,19.93
2019-02-25T07:15:39.761Z,23.17
2019-02-25T07:20:43.540Z,24.53
2019-02-25T07:25:56.675Z,15.63
2019-02-25T07:30:57.294Z,18.00
2019-02-25T07:35:55.093Z,39.87
2019-02-25T07:41:09.661Z,36.03
2019-02-25T07:46:19.540Z,21.43
2019-02-25T07:51:26.649Z,27.17
2019-02-25T07:56:41.265Z,20.60
2019-02-25T08:01:39.074Z,22.33
2019-02-25T08:06:36.867Z,21.57
2019-02-25T08:11:51.236Z,17.67
2019-02-25T08:16:49.056Z,18.63
2019-02-25T08:21:50.044Z,10.90
2019-02-25T08:26:50.643Z,11.13
2019-02-25T08:31:54.289Z,6.83
2019-02-25T08:37:18.804Z,11.40
2019-02-25T08:42:24.277Z,7.13
2019-02-25T08:47:24.835Z,11.40
2019-02-25T08:52:20.838Z,6.63
2019-02-25T08:57:16.837Z,6.80
2019-02-25T09:02:12.724Z,9.87
2019-02-25T09:07:08.632Z,5.73
2019-02-25T09:12:04.549Z,9.13
2019-02-25T09:17:00.441Z,6.47
2019-02-25T09:21:56.348Z,4.80
2019-02-25T09:26:52.346Z,9.37
2019-02-25T09:31:48.252Z,6.83
2019-02-25T09:36:44.172Z,7.17
2019-02-25T09:41:40.063Z,8.20
2019-02-25T09:46:35.944Z,5.30
2019-02-25T09:51:31.835Z,5.43
2019-02-25T09:56:27.718Z,5.63
2019-02-25T10:01:23.624Z,6.57
2019-02-25T10:06:19.516Z,4.70
2019-02-25T10:11:15.424Z,3.83
2019-02-25T10:16:11.346Z,5.20
2019-02-25T10:21:07.262Z,7.60
2019-02-25T10:26:03.273Z,5.60
2019-02-25T10:30:59.280Z,5.43
2019-02-25T10:35:55.240Z,7.67
2019-02-25T10:40:52.149Z,7.47
2019-02-25T10:45:49.638Z,5.70
2019-02-25T10:50:45.588Z,9.30
2019-02-25T10:56:05.182Z,10.57
2019-02-25T11:01:01.125Z,5.80
2019-02-25T11:05:58.675Z,6.30
2019-02-25T11:10:56.860Z,12.77
2019-02-25T11:15:53.683Z,8.10
2019-02-25T11:20:49.590Z,6.80
2019-02-25T11:25:45.587Z,8.47
2019-02-25T11:30:43.142Z,6.17
2019-02-25T11:35:41.103Z,7.37
2019-02-25T11:40:38.345Z,9.40
2019-02-25T11:45:36.348Z,9.20
2019-02-25T11:50:32.383Z,16.90
2019-02-25T11:55:28.282Z,7.33
2019-02-25T12:00:24.893Z,13.57
2019-02-25T12:05:20.796Z,9.73
2019-02-25T12:10:17.243Z,9.80
2019-02-25T12:15:16.812Z,6.90
2019-02-25T12:20:13.029Z,9.10
2019-02-25T12:25:20.068Z,8.10
2019-02-25T12:30:40.563Z,12.60
2019-02-25T12:35:36.459Z,11.97
2019-02-25T12:40:32.365Z,8.80
2019-02-25T12:45:29.077Z,9.57
2019-02-25T12:50:24.948Z,7.33
2019-02-25T12:55:20.841Z,8.40
2019-02-25T13:00:20.740Z,17.63
2019-02-25T13:05:21.870Z,11.93
2019-02-25T13:10:18.071Z,11.13
2019-02-25T13:15:18.821Z,10.67
2019-02-25T13:20:14.998Z,6.90
2019-02-25T13:25:20.528Z,8.57
2019-02-25T13:30:16.741Z,8.80
2019-02-25T13:35:13.744Z,6.73
2019-02-25T13:40:14.305Z,8.10
2019-02-25T13:45:23.618Z,6.27
2019-02-25T13:50:19.568Z,12.00
2019-02-25T13:55:16.973Z,10.50
2019-02-25T14:00:16.069Z,10.30
2019-02-25T14:05:12.684Z,9.03
2019-02-25T14:10:11.247Z,9.87
2019-02-25T14:15:13.898Z,9.37
2019-02-25T14:20:12.225Z,9.47
2019-02-25T14:25:12.424Z,7.87
2019-02-25T14:30:11.877Z,14.93
2019-02-25T14:35:08.034Z,9.47
2019-02-25T14:40:32.008Z,8.57
2019-02-25T14:45:29.013Z,11.37
2019-02-25T14:50:25.242Z,10.13
2019-02-25T14:55:21.478Z,12.30
2019-02-25T15:00:28.350Z,13.67
2019-02-25T15:05:23.162Z,11.60
2019-02-25T15:10:19.610Z,9.63
2019-02-25T15:15:20.914Z,11.07
2019-02-25T15:20:18.629Z,10.97
2019-02-25T15:25:16.894Z,10.77
2019-02-25T15:30:16.691Z,15.13
2019-02-25T15:35:14.074Z,10.57
2019-02-25T15:40:14.578Z,19.73
2019-02-25T15:45:16.535Z,12.73
2019-02-25T15:50:14.823Z,13.20
2019-02-25T15:55:14.999Z,11.73
2019-02-25T16:00:19.074Z,9.60
2019-02-25T16:05:16.859Z,14.40
2019-02-25T16:10:16.321Z,13.83
2019-02-25T16:15:15.250Z,15.33
2019-02-25T16:20:34.179Z,14.70
2019-02-25T16:25:31.746Z,15.90
2019-02-25T16:30:30.609Z,16.37
2019-02-25T16:35:25.964Z,20.10
2019-02-25T16:40:26.451Z,14.33
2019-02-25T16:45:35.461Z,15.43
2019-02-25T16:50:31.180Z,11.87
2019-02-25T16:55:27.959Z,11.03
2019-02-25T17:00:29.618Z,15.20
2019-02-25T17:05:25.722Z,10.53
2019-02-25T17:10:26.617Z,16.47
2019-02-25T17:15:26.884Z,17.30
2019-02-25T17:20:27.838Z,20.80
2019-02-25T17:25:26.915Z,19.90
2019-02-25T17:30:24.080Z,17.03
2019-02-25T17:35:25.384Z,18.57
2019-02-25T17:40:20.161Z,16.30
2019-02-25T17:45:25.114Z,17.47
2019-02-25T17:50:21.629Z,18.53
2019-02-25T17:55:21.785Z,17.53
2019-02-25T18:00:23.902Z,14.00
2019-02-25T18:05:21.120Z,16.43
2019-02-25T18:10:17.458Z,19.57
2019-02-25T18:15:19.638Z,24.03
2019-02-25T18:20:16.070Z,18.90
2019-02-25T18:25:12.885Z,17.77
2019-02-25T18:30:11.571Z,14.57
2019-02-25T18:35:08.165Z,100.30
2019-02-25T18:40:09.401Z,25.03
2019-02-25T18:45:13.736Z,15.77
2019-02-25T18:50:19.152Z,19.00
2019-02-25T18:55:17.933Z,15.57
2019-02-25T19:00:28.396Z,16.60
2019-02-25T19:05:25.409Z,19.77
2019-02-25T19:10:24.671Z,14.87
2019-02-25T19:15:21.391Z,19.17
2019-02-25T19:20:17.655Z,29.13
2019-02-25T19:25:18.185Z,37.87
2019-02-25T19:30:19.745Z,29.50
2019-02-25T19:35:16.547Z,31.93
2019-02-25T19:40:36.554Z,30.07
2019-02-25T19:45:36.387Z,23.63
2019-02-25T19:50:34.682Z,26.60
2019-02-25T19:55:30.713Z,23.10
2019-02-25T20:00:29.742Z,25.70
2019-02-25T20:05:26.801Z,23.87
2019-02-25T20:10:22.968Z,30.40
2019-02-25T20:15:25.943Z,23.83
2019-02-25T20:20:22.101Z,22.27
2019-02-25T20:25:19.388Z,23.97
2019-02-25T20:30:17.001Z,27.90
2019-02-25T20:35:19.870Z,25.60
2019-02-25T20:40:19.098Z,31.50
2019-02-25T20:45:23.654Z,27.13
2019-02-25T20:50:21.465Z,27.63
2019-02-25T20:55:17.477Z,24.97
2019-02-25T21:00:17.728Z,21.30
2019-02-25T21:05:16.804Z,24.20
2019-02-25T21:10:14.288Z,27.50
2019-02-25T21:15:18.417Z,41.97
2019-02-25T21:20:15.136Z,29.07
2019-02-25T21:25:13.552Z,27.40
2019-02-25T21:30:19.122Z,38.10
2019-02-25T21:35:16.238Z,30.97
2019-02-25T21:40:14.183Z,32.50
2019-02-25T21:45:16.042Z,35.20
2019-02-25T21:50:16.174Z,32.90
2019-02-25T21:55:13.630Z,29.47
2019-02-25T22:00:11.714Z,30.80
2019-02-25T22:05:11.660Z,33.27
2019-02-25T22:10:11.806Z,28.63
2019-02-25T22:15:15.325Z,26.90
2019-02-25T22:20:14.365Z,30.70
2019-02-25T22:25:21.868Z,31.20
2019-02-25T22:30:18.186Z,27.57
2019-02-25T22:35:15.040Z,21.53
2019-02-25T22:40:15.073Z,29.37
2019-02-25T22:45:18.800Z,23.30
2019-02-25T22:50:15.374Z,26.10
2019-02-25T22:55:14.858Z,26.80
2019-02-25T23:00:42.369Z,33.60
2019-02-25T23:05:40.931Z,29.97
2019-02-25T23:10:38.212Z,29.80
2019-02-25T23:15:35.368Z,35.33
2019-02-25T23:20:33.563Z,27.80
2019-02-25T23:25:29.221Z,31.90
2019-02-25T23:30:25.148Z,31.67
2019-02-25T23:35:22.888Z,31.43
2019-02-25T23:40:18.855Z,28.73
2019-02-25T23:45:21.267Z,29.13
2019-02-25T23:50:16.831Z,35.63
2019-02-25T23:55:16.514Z,28.53
